Terminal Aerodrome Forecast
Issued by NWS

Home | Current Version | Previous Version | Text Only | Print | Product List | Glossary On
Versions: 1 2 3 4 5 6 7 8 9 10 11 12 13 14 15 16 17 18 19 20 21 22 23 24 25 26 27
000
FTUS43 KMKX 231120
TAFENW
TAF
KENW 231120Z 2312/2412 01005KT 6SM -RA BR SCT010 OVC070
     FM231600 01006KT 6SM BR VCSH SCT008 OVC100
     FM232000 33010KT P6SM VCSH BKN100
     FM240600 30010KT 4SM RA BR SCT020 OVC030
     FM240900 28010KT 3SM RA BR OVC015=

USA.gov is the U.S. government's official web portal to all federal, state and local government web resources and services.